createdAt,value
2019-06-10T00:00:50.805Z,18.27
2019-06-10T00:03:20.588Z,18.36
2019-06-10T00:05:47.851Z,18.40
2019-06-10T00:08:15.339Z,18.38
2019-06-10T00:10:43.099Z,18.37
2019-06-10T00:13:11.826Z,18.34
2019-06-10T00:15:40.951Z,18.28
2019-06-10T00:18:32.820Z,18.29
2019-06-10T00:20:40.643Z,18.25
2019-06-10T00:23:08.381Z,18.24
2019-06-10T00:25:35.966Z,18.23
2019-06-10T00:28:05.653Z,18.18
2019-06-10T00:30:32.756Z,18.15
2019-06-10T00:33:01.204Z,18.16
2019-06-10T00:35:31.522Z,18.12
2019-06-10T00:38:02.541Z,18.11
2019-06-10T00:40:28.907Z,18.07
2019-06-10T00:42:56.381Z,17.99
2019-06-10T00:45:24.633Z,17.89
2019-06-10T00:48:07.711Z,17.90
2019-06-10T00:50:22.036Z,17.93
2019-06-10T00:52:51.508Z,17.90
2019-06-10T00:55:21.054Z,17.90
2019-06-10T00:57:48.184Z,17.88
2019-06-10T01:00:25.282Z,17.82
2019-06-10T01:02:45.199Z,17.80
2019-06-10T01:05:15.227Z,17.78
2019-06-10T01:07:41.979Z,17.78
2019-06-10T01:10:13.409Z,17.70
2019-06-10T01:12:43.602Z,17.67
2019-06-10T01:15:12.518Z,17.62
2019-06-10T01:17:41.714Z,17.71
2019-06-10T01:20:14.363Z,17.65
2019-06-10T01:22:41.083Z,17.62
2019-06-10T01:25:09.856Z,17.63
2019-06-10T01:27:40.706Z,17.54
2019-06-10T01:30:12.400Z,17.51
2019-06-10T01:32:36.931Z,17.44
2019-06-10T01:35:04.671Z,17.40
2019-06-10T01:37:32.153Z,17.45
2019-06-10T01:40:00.800Z,17.38
2019-06-10T01:42:30.546Z,17.41
2019-06-10T01:45:01.187Z,17.36
2019-06-10T01:47:31.019Z,17.33
2019-06-10T01:50:00.561Z,17.34
2019-06-10T01:52:31.686Z,17.28
2019-06-10T01:55:01.388Z,17.20
2019-06-10T01:57:33.489Z,17.12
2019-06-10T02:00:05.279Z,17.04
2019-06-10T02:02:34.845Z,16.99
2019-06-10T02:05:01.619Z,16.98
2019-06-10T02:07:31.823Z,16.97
2019-06-10T02:10:00.950Z,16.98
2019-06-10T02:12:27.947Z,16.94
2019-06-10T02:14:55.429Z,16.90
2019-06-10T02:17:23.967Z,16.92
2019-06-10T02:19:51.902Z,16.86
2019-06-10T02:22:23.938Z,16.89
2019-06-10T02:24:50.651Z,16.92
2019-06-10T02:27:19.532Z,16.91
2019-06-10T02:29:50.602Z,16.88
2019-06-10T02:32:23.252Z,16.84
2019-06-10T02:35:02.031Z,16.82
2019-06-10T02:37:20.208Z,16.78
2019-06-10T02:39:45.766Z,16.86
2019-06-10T02:42:30.167Z,16.87
2019-06-10T02:44:54.091Z,16.93
2019-06-10T02:47:24.612Z,16.90
2019-06-10T02:49:59.058Z,16.85
2019-06-10T02:52:24.674Z,16.89
2019-06-10T02:54:53.083Z,16.93
2019-06-10T02:57:22.675Z,16.89
2019-06-10T02:59:48.138Z,16.91
2019-06-10T03:02:18.250Z,17.02
2019-06-10T03:04:46.863Z,17.04
2019-06-10T03:07:15.778Z,17.05
2019-06-10T03:09:43.409Z,17.13
2019-06-10T03:12:12.214Z,17.13
2019-06-10T03:14:42.157Z,17.17
2019-06-10T03:17:13.135Z,17.17
2019-06-10T03:19:50.118Z,17.16
2019-06-10T03:22:13.102Z,17.16
2019-06-10T03:24:42.167Z,17.16
2019-06-10T03:27:09.687Z,17.14
2019-06-10T03:29:37.179Z,17.13
2019-06-10T03:32:05.623Z,17.13
2019-06-10T03:34:41.513Z,17.17
2019-06-10T03:37:03.841Z,17.09
2019-06-10T03:39:32.831Z,17.15
2019-06-10T03:42:02.261Z,17.20
2019-06-10T03:44:30.207Z,17.20
2019-06-10T03:46:57.713Z,17.24
2019-06-10T03:49:27.032Z,17.25
2019-06-10T03:51:54.568Z,17.21
2019-06-10T03:54:25.794Z,17.26
2019-06-10T03:56:52.076Z,17.31
2019-06-10T03:59:19.709Z,17.40
2019-06-10T04:01:47.267Z,17.49
2019-06-10T04:04:14.778Z,17.44
2019-06-10T04:06:44.261Z,17.46
2019-06-10T04:09:12.695Z,17.58
2019-06-10T04:11:42.830Z,17.63
2019-06-10T04:14:10.185Z,17.70
2019-06-10T04:16:37.701Z,17.78
2019-06-10T04:19:05.264Z,17.88
2019-06-10T04:21:32.812Z,17.97
2019-06-10T04:24:02.202Z,18.05
2019-06-10T04:26:29.718Z,17.97
2019-06-10T04:28:57.164Z,18.33
2019-06-10T04:31:25.431Z,18.54
2019-06-10T04:33:53.969Z,18.50
2019-06-10T04:36:24.522Z,18.52
2019-06-10T04:38:52.512Z,18.33
2019-06-10T04:41:20.485Z,18.51
2019-06-10T04:43:49.431Z,18.47
2019-06-10T04:46:16.959Z,18.45
2019-06-10T04:48:44.463Z,18.44
2019-06-10T04:51:13.023Z,18.42
2019-06-10T04:53:43.239Z,18.23
2019-06-10T04:56:12.091Z,18.28
2019-06-10T04:58:43.020Z,18.25
2019-06-10T05:01:12.016Z,18.29
2019-06-10T05:03:40.374Z,18.38
2019-06-10T05:06:07.984Z,18.40
2019-06-10T05:08:35.473Z,18.54
2019-06-10T05:11:03.825Z,18.44
2019-06-10T05:13:33.505Z,18.60
2019-06-10T05:16:03.329Z,18.71
2019-06-10T05:18:30.424Z,18.82
2019-06-10T05:20:59.502Z,18.63
2019-06-10T05:23:27.914Z,18.68
2019-06-10T05:25:56.296Z,18.92
2019-06-10T05:28:25.358Z,19.07
2019-06-10T05:30:53.283Z,19.07
2019-06-10T05:33:23.111Z,19.06
2019-06-10T05:35:50.039Z,18.99
2019-06-10T05:38:17.594Z,19.21
2019-06-10T05:40:45.066Z,19.45
2019-06-10T05:43:13.061Z,19.42
2019-06-10T05:45:42.429Z,19.43
2019-06-10T05:48:10.121Z,19.73
2019-06-10T05:50:37.600Z,20.23
2019-06-10T05:53:05.096Z,20.43
2019-06-10T05:55:34.845Z,21.01
2019-06-10T05:58:02.577Z,21.52
2019-06-10T06:00:32.445Z,22.07
2019-06-10T06:03:02.746Z,25.12
2019-06-10T06:05:32.897Z,25.23
2019-06-10T06:08:05.695Z,24.94
2019-06-10T06:10:29.474Z,27.09
2019-06-10T06:12:57.046Z,28.94
2019-06-10T06:15:25.424Z,27.73
2019-06-10T06:18:06.167Z,30.89
2019-06-10T06:20:23.499Z,33.02
2019-06-10T06:22:52.275Z,33.62
2019-06-10T06:25:23.855Z,33.96
2019-06-10T06:27:49.213Z,34.31
2019-06-10T06:30:18.874Z,36.51
2019-06-10T06:32:46.469Z,34.57
2019-06-10T06:35:14.303Z,35.82
2019-06-10T06:37:42.843Z,33.80
2019-06-10T06:40:13.073Z,35.90
2019-06-10T06:42:43.071Z,37.95
2019-06-10T06:45:12.061Z,36.13
2019-06-10T06:47:39.225Z,36.84
2019-06-10T06:50:07.094Z,37.89
2019-06-10T06:53:06.355Z,35.32
2019-06-10T06:55:04.507Z,36.33
2019-06-10T06:57:34.166Z,34.26
2019-06-10T07:00:22.739Z,33.96
2019-06-10T07:02:32.167Z,35.44
2019-06-10T07:05:03.037Z,32.40
2019-06-10T07:07:33.091Z,32.88
2019-06-10T07:10:03.468Z,31.38
2019-06-10T07:12:33.761Z,33.83
2019-06-10T07:15:04.155Z,35.11
2019-06-10T07:17:33.801Z,34.76
2019-06-10T07:20:03.144Z,36.71
2019-06-10T07:22:33.559Z,37.29
2019-06-10T07:25:04.157Z,37.45
2019-06-10T07:27:29.640Z,38.73
2019-06-10T07:29:57.157Z,35.77
2019-06-10T07:32:25.625Z,35.17
2019-06-10T07:34:53.039Z,35.32
2019-06-10T07:37:22.984Z,36.42
2019-06-10T07:39:52.188Z,38.11
2019-06-10T07:42:19.276Z,37.87
2019-06-10T07:44:47.899Z,38.14
2019-06-10T07:47:15.414Z,36.08
2019-06-10T07:49:45.567Z,35.97
2019-06-10T07:52:19.359Z,32.72
2019-06-10T07:54:45.241Z,36.74
2019-06-10T07:57:12.996Z,35.96
2019-06-10T07:59:42.915Z,34.60
2019-06-10T08:02:12.264Z,33.36
2019-06-10T08:04:39.970Z,32.04
2019-06-10T08:07:08.439Z,32.36
2019-06-10T08:09:37.312Z,32.87
2019-06-10T08:12:06.053Z,33.89
2019-06-10T08:14:33.846Z,35.41
2019-06-10T08:17:03.122Z,34.53
2019-06-10T08:19:37.802Z,36.46
2019-06-10T08:22:02.915Z,37.66
2019-06-10T08:24:32.757Z,37.57
2019-06-10T08:27:13.891Z,34.90
2019-06-10T08:29:44.409Z,36.76
2019-06-10T08:32:13.092Z,37.06
2019-06-10T08:34:44.608Z,36.44
2019-06-10T08:37:13.548Z,37.19
2019-06-10T08:39:45.656Z,36.86
2019-06-10T08:42:12.640Z,35.53
2019-06-10T08:44:43.484Z,35.06
2019-06-10T08:47:09.710Z,35.37
2019-06-10T08:49:37.727Z,34.98
2019-06-10T08:52:06.263Z,34.38
2019-06-10T08:54:33.832Z,34.01
2019-06-10T08:57:03.693Z,36.33
2019-06-10T08:59:34.348Z,33.26
2019-06-10T09:02:03.952Z,34.37
2019-06-10T09:04:33.091Z,32.25
2019-06-10T09:07:03.884Z,33.02
2019-06-10T09:09:32.860Z,33.57
2019-06-10T09:11:59.620Z,33.90
2019-06-10T09:14:27.423Z,36.44
2019-06-10T09:16:54.981Z,36.53
2019-06-10T09:19:22.643Z,36.43
2019-06-10T09:21:55.213Z,35.47
2019-06-10T09:24:22.160Z,36.82
2019-06-10T09:26:51.576Z,36.74
2019-06-10T09:29:22.145Z,35.18
2019-06-10T09:31:51.140Z,34.46
2019-06-10T09:34:18.104Z,35.87
2019-06-10T09:36:49.098Z,33.85
2019-06-10T09:39:14.997Z,34.24
2019-06-10T09:41:53.687Z,35.46
2019-06-10T09:44:13.095Z,31.48
2019-06-10T09:46:44.583Z,32.22
2019-06-10T09:49:12.741Z,31.11
2019-06-10T09:51:41.220Z,31.97
2019-06-10T09:54:12.579Z,32.29
2019-06-10T09:56:38.980Z,33.26
2019-06-10T09:59:12.497Z,30.85
2019-06-10T10:01:41.544Z,32.23
2019-06-10T10:04:12.256Z,31.70
2019-06-10T10:06:41.427Z,33.71
2019-06-10T10:09:09.181Z,33.09
2019-06-10T10:11:36.852Z,32.35
2019-06-10T10:14:06.528Z,30.55
2019-06-10T10:16:34.147Z,30.82
2019-06-10T10:19:05.196Z,30.77
2019-06-10T10:21:32.072Z,30.87
2019-06-10T10:24:06.900Z,30.95
2019-06-10T10:26:28.965Z,30.81
2019-06-10T10:28:58.641Z,30.23
2019-06-10T10:31:26.239Z,30.30
2019-06-10T10:33:53.869Z,29.33
2019-06-10T10:36:22.657Z,30.39
2019-06-10T10:38:50.830Z,29.73
2019-06-10T10:41:18.387Z,28.78
2019-06-10T10:43:48.646Z,30.24
2019-06-10T10:46:15.256Z,30.87
2019-06-10T10:48:43.077Z,30.54
2019-06-10T10:51:13.058Z,31.52
2019-06-10T10:53:39.969Z,32.07
2019-06-10T10:56:07.539Z,30.75
2019-06-10T10:58:35.138Z,31.82
2019-06-10T11:01:04.084Z,32.74
2019-06-10T11:03:33.588Z,30.28
2019-06-10T11:06:01.367Z,28.50
2019-06-10T11:08:28.839Z,29.26
2019-06-10T11:11:00.930Z,30.25
2019-06-10T11:13:29.058Z,29.57
2019-06-10T11:15:58.447Z,30.99
2019-06-10T11:18:26.113Z,31.20
2019-06-10T11:20:54.109Z,32.45
2019-06-10T11:23:22.824Z,32.54
2019-06-10T11:25:53.732Z,32.07
2019-06-10T11:28:19.968Z,31.20
2019-06-10T11:30:49.416Z,29.72
2019-06-10T11:33:17.014Z,31.26
2019-06-10T11:35:44.460Z,32.39
2019-06-10T11:38:12.847Z,32.69
2019-06-10T11:40:42.684Z,32.73
2019-06-10T11:43:09.640Z,31.06
2019-06-10T11:45:37.200Z,31.40
2019-06-10T11:48:04.824Z,31.78
2019-06-10T11:50:33.413Z,32.46
2019-06-10T11:53:04.017Z,31.06
2019-06-10T11:55:32.754Z,31.63
2019-06-10T11:58:00.034Z,31.67
2019-06-10T12:00:27.819Z,31.99
2019-06-10T12:02:58.600Z,33.81
2019-06-10T12:05:26.243Z,33.00
2019-06-10T12:07:56.307Z,30.90
2019-06-10T12:10:23.508Z,28.49
2019-06-10T12:12:54.915Z,29.58
2019-06-10T12:15:22.738Z,31.08
2019-06-10T12:17:52.648Z,30.49
2019-06-10T12:20:19.805Z,32.22
2019-06-10T12:22:47.383Z,31.03
2019-06-10T12:25:31.647Z,30.82
2019-06-10T12:27:46.069Z,29.16
2019-06-10T12:30:15.016Z,29.66
2019-06-10T12:32:42.652Z,29.94
2019-06-10T12:35:13.530Z,30.86
2019-06-10T12:37:42.500Z,31.02
2019-06-10T12:40:12.550Z,30.22
2019-06-10T12:42:38.785Z,29.73
2019-06-10T12:45:08.518Z,30.40
2019-06-10T12:47:35.740Z,29.82
2019-06-10T12:50:05.536Z,29.90
2019-06-10T12:52:33.125Z,31.00
2019-06-10T12:55:02.394Z,30.11
2019-06-10T12:57:32.556Z,30.05
2019-06-10T13:00:01.154Z,29.33
2019-06-10T13:02:34.061Z,30.99
2019-06-10T13:04:59.710Z,31.77
2019-06-10T13:07:28.244Z,30.49
2019-06-10T13:09:57.839Z,30.37
2019-06-10T13:12:25.391Z,29.03
2019-06-10T13:14:52.974Z,29.78
2019-06-10T13:17:20.554Z,30.52
2019-06-10T13:19:48.133Z,30.01
2019-06-10T13:22:15.611Z,28.92
2019-06-10T13:24:43.115Z,28.63
2019-06-10T13:27:11.056Z,28.86
2019-06-10T13:29:39.028Z,30.25
2019-06-10T13:32:08.020Z,30.15
2019-06-10T13:34:35.812Z,29.27
2019-06-10T13:37:06.797Z,28.95
2019-06-10T13:39:34.156Z,30.00
2019-06-10T13:42:05.013Z,30.03
2019-06-10T13:44:32.183Z,29.35
2019-06-10T13:47:02.032Z,29.35
2019-06-10T13:49:29.401Z,30.17
2019-06-10T13:51:56.997Z,30.25
2019-06-10T13:54:24.480Z,30.50
2019-06-10T13:56:52.403Z,29.85
2019-06-10T13:59:22.761Z,28.91
2019-06-10T14:01:49.389Z,27.84
2019-06-10T14:04:21.793Z,28.59
2019-06-10T14:06:50.412Z,29.34
2019-06-10T14:09:16.740Z,28.89
2019-06-10T14:11:44.475Z,28.86
2019-06-10T14:14:17.465Z,29.22
2019-06-10T14:16:42.326Z,29.20
2019-06-10T14:19:12.632Z,29.69
2019-06-10T14:21:42.349Z,30.22
2019-06-10T14:24:10.371Z,29.78
2019-06-10T14:26:42.988Z,29.69
2019-06-10T14:29:09.228Z,29.35
2019-06-10T14:31:43.662Z,29.07
2019-06-10T14:34:07.878Z,29.18
2019-06-10T14:36:35.447Z,29.39
2019-06-10T14:39:06.039Z,28.47
2019-06-10T14:41:34.347Z,28.58
2019-06-10T14:44:01.858Z,28.46
2019-06-10T14:46:29.335Z,28.15
2019-06-10T14:48:56.915Z,28.50
2019-06-10T14:51:24.617Z,28.81
2019-06-10T14:53:52.056Z,27.89
2019-06-10T14:56:19.920Z,28.03
2019-06-10T14:58:47.787Z,29.40
2019-06-10T15:01:21.931Z,29.65
2019-06-10T15:03:44.803Z,29.32
2019-06-10T15:06:13.400Z,28.75
2019-06-10T15:08:42.893Z,29.30
2019-06-10T15:11:11.612Z,28.70
2019-06-10T15:13:39.291Z,28.97
2019-06-10T15:16:08.078Z,28.28
2019-06-10T15:18:35.738Z,27.85
2019-06-10T15:21:03.206Z,27.90
2019-06-10T15:23:32.437Z,27.89
2019-06-10T15:26:02.871Z,27.49
2019-06-10T15:28:30.687Z,27.53
2019-06-10T15:30:58.110Z,27.61
2019-06-10T15:33:25.761Z,27.47
2019-06-10T15:35:53.655Z,27.08
2019-06-10T15:38:23.304Z,27.60
2019-06-10T15:40:53.030Z,27.41
2019-06-10T15:43:22.588Z,27.73
2019-06-10T15:45:49.240Z,28.03
2019-06-10T15:48:18.224Z,28.25
2019-06-10T15:50:45.970Z,28.13
2019-06-10T15:53:15.742Z,28.13
2019-06-10T15:56:09.073Z,27.89
2019-06-10T15:58:12.890Z,28.02
2019-06-10T16:00:42.582Z,27.86
2019-06-10T16:03:09.991Z,27.75
2019-06-10T16:05:37.886Z,27.73
2019-06-10T16:08:05.128Z,27.54
2019-06-10T16:10:32.854Z,27.88
2019-06-10T16:13:03.225Z,27.89
2019-06-10T16:15:29.962Z,27.17
2019-06-10T16:17:57.494Z,27.50
2019-06-10T16:20:24.986Z,27.18
2019-06-10T16:22:53.521Z,27.35
2019-06-10T16:25:25.179Z,27.29
2019-06-10T16:27:53.639Z,26.73
2019-06-10T16:30:20.781Z,26.65
2019-06-10T16:32:49.354Z,26.90
2019-06-10T16:35:16.975Z,27.04
2019-06-10T16:37:44.483Z,27.31
2019-06-10T16:40:12.561Z,27.30
2019-06-10T16:42:40.036Z,27.63
2019-06-10T16:45:07.994Z,27.40
2019-06-10T16:47:35.558Z,27.18
2019-06-10T16:50:03.862Z,27.22
2019-06-10T16:52:34.241Z,26.83
2019-06-10T16:55:02.221Z,26.78
2019-06-10T16:57:30.462Z,26.45
2019-06-10T16:59:58.031Z,26.20
2019-06-10T17:02:26.882Z,26.32
2019-06-10T17:04:54.403Z,26.31
2019-06-10T17:07:22.606Z,26.26
2019-06-10T17:09:52.576Z,26.22
2019-06-10T17:12:20.312Z,26.12
2019-06-10T17:14:47.707Z,26.03
2019-06-10T17:17:15.179Z,25.99
2019-06-10T17:19:42.654Z,25.92
2019-06-10T17:22:12.644Z,25.75
2019-06-10T17:24:42.105Z,25.61
2019-06-10T17:27:12.948Z,25.49
2019-06-10T17:29:39.818Z,25.39
2019-06-10T17:32:07.380Z,25.24
2019-06-10T17:34:34.979Z,25.14
2019-06-10T17:37:03.086Z,25.05
2019-06-10T17:39:32.056Z,25.02
2019-06-10T17:42:00.216Z,25.01
2019-06-10T17:44:29.199Z,24.98
2019-06-10T17:46:57.188Z,25.00
2019-06-10T17:49:25.840Z,25.05
2019-06-10T17:51:54.160Z,25.08
2019-06-10T17:54:22.480Z,25.11
2019-06-10T17:56:51.170Z,25.14
2019-06-10T17:59:18.779Z,25.16
2019-06-10T18:01:48.257Z,25.19
2019-06-10T18:04:15.750Z,25.17
2019-06-10T18:06:43.475Z,25.11
2019-06-10T18:09:12.261Z,25.04
2019-06-10T18:11:40.074Z,24.96
2019-06-10T18:14:07.560Z,24.87
2019-06-10T18:16:36.682Z,24.83
2019-06-10T18:19:04.324Z,24.78
2019-06-10T18:21:33.520Z,24.70
2019-06-10T18:24:06.844Z,24.67
2019-06-10T18:26:33.400Z,24.66
2019-06-10T18:29:05.973Z,24.59
2019-06-10T18:31:31.875Z,24.55
2019-06-10T18:33:59.011Z,24.50
2019-06-10T18:36:26.463Z,24.44
2019-06-10T18:38:54.040Z,24.42
2019-06-10T18:41:22.368Z,24.31
2019-06-10T18:43:49.920Z,24.25
2019-06-10T18:46:17.430Z,24.21
2019-06-10T18:48:45.004Z,24.28
2019-06-10T18:51:12.640Z,24.30
2019-06-10T18:53:42.001Z,24.17
2019-06-10T18:56:09.611Z,24.12
2019-06-10T18:58:37.839Z,24.01
2019-06-10T19:01:07.925Z,23.94
2019-06-10T19:03:36.679Z,23.76
2019-06-10T19:06:04.938Z,23.47
2019-06-10T19:08:35.536Z,23.31
2019-06-10T19:11:02.398Z,23.12
2019-06-10T19:13:33.666Z,23.02
2019-06-10T19:16:02.383Z,22.94
2019-06-10T19:18:29.941Z,22.90
2019-06-10T19:20:57.389Z,22.81
2019-06-10T19:23:24.984Z,22.70
2019-06-10T19:25:52.772Z,22.65
2019-06-10T19:28:22.558Z,22.56
2019-06-10T19:30:49.865Z,22.53
2019-06-10T19:33:18.434Z,22.51
2019-06-10T19:35:45.891Z,22.51
2019-06-10T19:38:13.316Z,22.44
2019-06-10T19:40:42.929Z,22.47
2019-06-10T19:43:12.267Z,22.48
2019-06-10T19:45:39.562Z,22.31
2019-06-10T19:48:07.026Z,22.20
2019-06-10T19:50:36.072Z,22.12
2019-06-10T19:53:03.818Z,22.07
2019-06-10T19:55:32.451Z,22.00
2019-06-10T19:58:03.474Z,21.95
2019-06-10T20:00:32.671Z,21.98
2019-06-10T20:03:02.899Z,21.91
2019-06-10T20:05:32.401Z,21.91
2019-06-10T20:07:59.496Z,21.90
2019-06-10T20:10:26.946Z,21.91
2019-06-10T20:12:54.347Z,21.93
2019-06-10T20:15:22.942Z,21.99
2019-06-10T20:17:52.557Z,21.92
2019-06-10T20:20:22.325Z,21.91
2019-06-10T20:22:49.096Z,21.97
2019-06-10T20:25:16.702Z,22.08
2019-06-10T20:27:45.434Z,22.16
2019-06-10T20:30:23.760Z,22.19
2019-06-10T20:32:47.875Z,22.13
2019-06-10T20:35:14.055Z,22.00
2019-06-10T20:37:44.251Z,22.04
2019-06-10T20:40:12.053Z,21.87
2019-06-10T20:42:40.219Z,21.71
2019-06-10T20:45:08.965Z,21.60
2019-06-10T20:47:37.604Z,21.38
2019-06-10T20:50:05.311Z,21.37
2019-06-10T20:52:32.773Z,21.30
2019-06-10T20:55:02.953Z,21.17
2019-06-10T20:57:29.603Z,21.06
2019-06-10T20:59:57.039Z,20.93
2019-06-10T21:02:26.363Z,20.79
2019-06-10T21:04:53.927Z,20.73
2019-06-10T21:07:23.137Z,20.72
2019-06-10T21:09:53.431Z,20.93
2019-06-10T21:12:22.222Z,20.96
2019-06-10T21:14:50.188Z,20.81
2019-06-10T21:17:17.987Z,20.70
2019-06-10T21:19:46.437Z,20.40
2019-06-10T21:22:14.955Z,20.19
2019-06-10T21:24:42.542Z,20.07
2019-06-10T21:27:11.103Z,19.90
2019-06-10T21:29:38.564Z,19.82
2019-06-10T21:32:06.114Z,19.72
2019-06-10T21:34:33.641Z,19.61
2019-06-10T21:37:03.192Z,19.49
2019-06-10T21:39:32.241Z,19.39
2019-06-10T21:42:02.098Z,19.29
2019-06-10T21:44:28.995Z,19.20
2019-06-10T21:46:56.565Z,19.13
2019-06-10T21:49:24.064Z,19.08
2019-06-10T21:51:55.508Z,19.02
2019-06-10T21:54:22.480Z,18.96
2019-06-10T21:56:52.387Z,18.85
2019-06-10T21:59:19.375Z,18.75
2019-06-10T22:01:47.557Z,18.71
2019-06-10T22:04:16.280Z,18.67
2019-06-10T22:06:45.377Z,18.70
2019-06-10T22:09:12.822Z,18.72
2019-06-10T22:11:42.139Z,18.62
2019-06-10T22:14:11.950Z,18.58
2019-06-10T22:16:38.774Z,18.54
2019-06-10T22:19:06.249Z,18.50
2019-06-10T22:21:33.684Z,18.65
2019-06-10T22:24:02.244Z,18.69
2019-06-10T22:26:32.121Z,18.64
2019-06-10T22:28:59.194Z,18.67
2019-06-10T22:31:26.726Z,18.76
2019-06-10T22:33:55.971Z,18.83
2019-06-10T22:36:23.395Z,18.91
2019-06-10T22:38:54.023Z,19.01
2019-06-10T22:41:22.486Z,19.07
2019-06-10T22:43:49.449Z,19.09
2019-06-10T22:46:16.965Z,19.15
2019-06-10T22:48:44.460Z,19.18
2019-06-10T22:51:12.304Z,19.24
2019-06-10T22:53:42.363Z,19.31
2019-06-10T22:56:09.100Z,19.41
2019-06-10T22:58:36.583Z,19.40
2019-06-10T23:01:04.439Z,19.38
2019-06-10T23:03:32.149Z,19.41
2019-06-10T23:05:59.594Z,19.41
2019-06-10T23:08:27.085Z,19.41
2019-06-10T23:10:56.299Z,19.45
2019-06-10T23:13:23.851Z,19.55
2019-06-10T23:15:53.496Z,19.64
2019-06-10T23:18:22.439Z,19.63
2019-06-10T23:20:51.333Z,19.53
2019-06-10T23:23:19.505Z,19.49
2019-06-10T23:25:47.015Z,19.43
2019-06-10T23:28:14.513Z,19.43
2019-06-10T23:30:42.793Z,19.42
2019-06-10T23:33:12.404Z,19.41
2019-06-10T23:35:42.677Z,19.52
2019-06-10T23:38:09.416Z,19.54
2019-06-10T23:40:37.056Z,19.52
2019-06-10T23:43:04.535Z,19.53
2019-06-10T23:45:32.732Z,19.54
2019-06-10T23:48:01.299Z,19.59
2019-06-10T23:50:29.522Z,19.48
2019-06-10T23:53:02.095Z,19.39
2019-06-10T23:55:26.265Z,19.34
2019-06-10T23:57:54.781Z,19.31
